Time;durP1;ratioP1;P1;durP2;ratioP2;P2;SDS_P1;SDS_P2;PMS_P1;PMS_P2;Temp;Humidity;BMP_temperature;BMP_pressure;BME280_temperature;BME280_humidity;BME280_pressure;Samples;Min_cycle;Max_cycle;Signal;HPM_P1;HPM_P2
2023/03/05 00:01:47;;;;;;;;;73.25;54.25;;;;;3.47;70.06;100798.81;5037389;28;45546;-75
2023/03/05 00:04:14;;;;;;;;;64.25;50.25;;;;;3.52;70.59;100810.31;5039633;28;45333;-75
2023/03/05 00:06:40;;;;;;;;;61.50;50.25;;;;;3.53;70.17;100817.28;5039115;28;45370;-76
2023/03/05 00:09:06;;;;;;;;;60.25;46.50;;;;;3.39;70.62;100799.22;5039398;28;45473;-75
2023/03/05 00:11:32;;;;;;;;;53.75;45.25;;;;;3.41;70.17;100801.91;5054697;28;45665;-74
2023/03/05 00:13:59;;;;;;;;;72.50;54.50;;;;;3.38;71.36;100814.63;5036843;28;45387;-74
2023/03/05 00:16:26;;;;;;;;;73.00;55.00;;;;;3.43;71.04;100818.41;5017880;28;45291;-75
2023/03/05 00:18:52;;;;;;;;;67.50;52.00;;;;;3.33;71.06;100810.88;5018996;28;45521;-73
2023/03/05 00:21:22;;;;;;;;;65.00;49.75;;;;;3.42;71.53;100821.75;5017294;28;45441;-74
2023/03/05 00:23:49;;;;;;;;;70.50;52.50;;;;;3.20;70.97;100785.94;5018590;28;45360;-74
2023/03/05 00:26:16;;;;;;;;;55.75;43.75;;;;;3.39;71.07;100816.41;5020348;28;45514;-74
2023/03/05 00:28:41;;;;;;;;;59.50;44.50;;;;;3.29;71.27;100798.56;5019710;28;45400;-72
2023/03/05 00:31:07;;;;;;;;;60.50;47.50;;;;;3.29;71.75;100793.41;5056716;28;45504;-73
2023/03/05 00:33:33;;;;;;;;;54.25;44.25;;;;;3.31;71.21;100799.56;5040229;28;45363;-73
2023/03/05 00:36:01;;;;;;;;;58.25;43.00;;;;;3.32;71.19;100803.91;5041083;28;45345;-73
2023/03/05 00:38:27;;;;;;;;;61.00;44.25;;;;;3.24;70.94;100789.63;5042864;28;45405;-74
2023/03/05 00:40:52;;;;;;;;;60.50;44.25;;;;;3.21;71.32;100779.13;5029675;28;47727;-73
2023/03/05 00:43:18;;;;;;;;;53.50;43.75;;;;;3.31;70.92;100792.69;5042507;28;45526;-72
2023/03/05 00:45:43;;;;;;;;;47.50;41.50;;;;;3.26;71.33;100781.16;5054005;28;45505;-73
2023/03/05 00:48:09;;;;;;;;;66.25;46.50;;;;;3.24;71.77;100793.09;5043535;28;45498;-71
2023/03/05 00:50:35;;;;;;;;;60.25;42.00;;;;;3.18;71.26;100784.97;5037695;28;47374;-72
2023/03/05 00:53:00;;;;;;;;;61.25;47.75;;;;;3.09;71.30;100766.34;5049532;28;45491;-73
2023/03/05 00:55:25;;;;;;;;;63.00;47.50;;;;;3.14;71.36;100768.41;5045027;28;45185;-73
2023/03/05 00:57:51;;;;;;;;;53.75;44.00;;;;;3.21;71.78;100780.00;5026406;28;45493;-73
2023/03/05 01:00:17;;;;;;;;;59.75;46.25;;;;;3.17;72.13;100763.44;5044608;28;45558;-72
2023/03/05 01:02:42;;;;;;;;;56.75;42.75;;;;;3.23;71.67;100778.41;5039767;28;45828;-72
2023/03/05 01:05:12;;;;;;;;;47.75;40.00;;;;;3.14;71.37;100754.59;5027919;28;45260;-73
2023/03/05 01:07:37;;;;;;;;;59.75;44.00;;;;;2.98;70.45;100734.66;5039282;28;45587;-74
2023/03/05 01:10:04;;;;;;;;;53.00;42.75;;;;;3.24;70.19;100780.19;5039199;28;46458;-74
2023/03/05 01:12:29;;;;;;;;;54.25;42.25;;;;;3.05;70.67;100757.50;5035526;28;45521;-73
2023/03/05 01:14:55;;;;;;;;;50.50;44.50;;;;;3.09;71.11;100763.75;5036905;28;45287;-75
2023/03/05 01:17:21;;;;;;;;;51.50;43.50;;;;;3.13;71.31;100773.47;5045503;28;45516;-73
2023/03/05 01:19:46;;;;;;;;;59.75;45.50;;;;;3.06;71.92;100768.69;5046773;28;45329;-73
2023/03/05 01:22:12;;;;;;;;;56.00;43.75;;;;;3.00;71.04;100764.03;5040031;28;45472;-72
2023/03/05 01:24:37;;;;;;;;;58.25;43.25;;;;;2.99;70.96;100763.16;5044675;28;45433;-74
2023/03/05 01:27:03;;;;;;;;;61.50;48.25;;;;;2.89;71.72;100754.75;5028602;28;45480;-73
2023/03/05 01:29:28;;;;;;;;;55.50;44.25;;;;;2.86;71.30;100760.56;5025862;28;46540;-74
2023/03/05 01:31:54;;;;;;;;;59.50;43.75;;;;;2.72;71.76;100741.63;5044339;28;45588;-74
2023/03/05 01:34:20;;;;;;;;;55.25;45.25;;;;;2.84;72.33;100762.16;5045638;28;45494;-74
2023/03/05 01:36:46;;;;;;;;;61.25;46.25;;;;;2.69;73.26;100750.88;5047475;28;45553;-74
2023/03/05 01:39:11;;;;;;;;;61.75;45.25;;;;;2.56;72.97;100725.97;5060398;28;45505;-74
2023/03/05 01:41:37;;;;;;;;;52.75;45.00;;;;;2.77;72.63;100760.00;5048445;28;45861;-74
2023/03/05 01:44:02;;;;;;;;;66.00;48.25;;;;;2.77;73.16;100760.00;5043743;28;45476;-74
2023/03/05 01:46:33;;;;;;;;;66.75;49.25;;;;;2.56;72.69;100729.44;5025766;28;45414;-74
2023/03/05 01:49:04;;;;;;;;;64.50;48.00;;;;;2.68;72.78;100749.97;5017001;28;45476;-74
2023/03/05 01:51:42;;;;;;;;;51.25;44.25;;;;;2.69;73.38;100745.72;5018934;28;45396;-74
2023/03/05 01:54:12;;;;;;;;;57.50;48.25;;;;;2.62;73.25;100717.75;5044744;28;45588;-74
2023/03/05 01:56:39;;;;;;;;;57.00;44.50;;;;;2.73;72.56;100739.97;5051231;28;45567;-73
2023/03/05 01:59:05;;;;;;;;;56.00;43.75;;;;;2.73;71.92;100729.66;5032474;28;46584;-73
2023/03/05 02:01:47;;;;;;;;;62.00;45.00;;;;;2.74;71.81;100726.25;5032291;28;45522;-73
2023/03/05 02:04:17;;;;;;;;;59.25;46.75;;;;;2.61;71.04;100701.38;5031945;28;45460;-72
2023/03/05 02:06:44;;;;;;;;;56.00;43.25;;;;;2.64;71.41;100701.56;5029994;28;45592;-74
2023/03/05 02:09:10;;;;;;;;;63.75;48.50;;;;;2.65;72.19;100702.47;5023580;28;46814;-74
2023/03/05 02:11:36;;;;;;;;;54.75;45.25;;;;;2.45;72.21;100670.22;5031393;28;45427;-72
2023/03/05 02:14:02;;;;;;;;;57.00;46.75;;;;;2.52;73.41;100681.03;5031032;28;45470;-73
2023/03/05 02:16:35;;;;;;;;;52.50;42.25;;;;;2.64;73.27;100698.09;5023982;28;45605;-73
2023/03/05 02:19:07;;;;;;;;;58.25;44.50;;;;;2.54;73.04;100689.75;5034678;28;45581;-73
2023/03/05 02:21:42;;;;;;;;;53.25;43.50;;;;;2.59;72.85;100692.66;5035856;28;45359;-73
2023/03/05 02:24:12;;;;;;;;;55.00;43.75;;;;;2.57;72.92;100684.81;5034208;28;45639;-73
2023/03/05 02:26:38;;;;;;;;;54.25;43.00;;;;;2.46;73.42;100670.31;5034516;28;45542;-75
2023/03/05 02:29:07;;;;;;;;;60.75;46.00;;;;;2.44;73.98;100668.44;5035222;28;46151;-74
2023/03/05 02:31:32;;;;;;;;;50.75;44.50;;;;;2.54;72.58;100688.88;5035670;28;45397;-74
2023/03/05 02:33:58;;;;;;;;;58.25;44.75;;;;;2.45;72.79;100670.22;5047780;28;45575;-75
2023/03/05 02:36:24;;;;;;;;;53.50;46.75;;;;;2.22;72.63;100630.97;5016492;28;45332;-75
2023/03/05 02:38:49;;;;;;;;;52.75;42.00;;;;;2.42;72.34;100668.34;5016401;28;46175;-75
2023/03/05 02:41:15;;;;;;;;;55.25;43.50;;;;;2.37;72.68;100654.28;5030069;28;45505;-74
2023/03/05 02:43:41;;;;;;;;;64.50;45.00;;;;;2.46;72.84;100665.16;5051070;28;45548;-74
2023/03/05 02:46:07;;;;;;;;;54.25;42.50;;;;;2.32;72.87;100650.50;5030748;28;45477;-74
2023/03/05 02:48:33;;;;;;;;;60.25;45.00;;;;;2.30;73.14;100652.09;5021468;28;45466;-74
2023/03/05 02:51:01;;;;;;;;;53.50;43.75;;;;;2.25;73.33;100650.88;5016504;28;45569;-74
2023/03/05 02:53:27;;;;;;;;;60.75;48.75;;;;;2.25;73.86;100656.97;5049113;28;45555;-73
2023/03/05 02:55:52;;;;;;;;;60.00;44.75;;;;;2.16;74.46;100648.63;5039599;28;45486;-73
2023/03/05 02:58:18;;;;;;;;;61.50;45.00;;;;;2.14;73.42;100647.63;5030210;28;45471;-73
2023/03/05 03:00:45;;;;;;;;;52.25;44.50;;;;;2.18;73.80;100665.97;5019849;28;45438;-74
2023/03/05 03:03:11;;;;;;;;;50.00;43.00;;;;;2.22;73.99;100667.06;5032964;28;45452;-73
2023/03/05 03:05:37;;;;;;;;;56.75;43.75;;;;;2.12;73.68;100639.78;5025665;28;45639;-73
2023/03/05 03:08:03;;;;;;;;;65.00;46.25;;;;;1.76;72.91;100579.91;5030267;28;46218;-73
2023/03/05 03:10:28;;;;;;;;;54.50;46.00;;;;;1.98;72.72;100614.81;5019395;28;45426;-74
2023/03/05 03:12:54;;;;;;;;;55.75;44.75;;;;;2.09;72.53;100628.38;5019443;28;45510;-75
2023/03/05 03:15:19;;;;;;;;;53.75;45.00;;;;;2.07;72.81;100628.31;5048644;28;45526;-75
2023/03/05 03:17:45;;;;;;;;;62.50;44.50;;;;;2.16;72.90;100644.34;5038701;28;45525;-75
2023/03/05 03:20:13;;;;;;;;;61.25;45.50;;;;;2.21;73.08;100646.31;5039837;28;45415;-74
2023/03/05 03:22:40;;;;;;;;;48.00;43.25;;;;;2.17;73.79;100640.09;5037112;28;45530;-74
2023/03/05 03:25:06;;;;;;;;;57.25;44.00;;;;;1.99;73.78;100624.34;5019479;28;45424;-75
2023/03/05 03:27:32;;;;;;;;;50.75;44.25;;;;;2.06;74.07;100636.81;5043740;28;48121;-73
2023/03/05 03:30:03;;;;;;;;;60.75;45.25;;;;;2.08;73.80;100634.34;5026430;28;45513;-73
2023/03/05 03:32:29;;;;;;;;;53.75;44.00;;;;;2.09;73.78;100639.59;5050435;28;45584;-74
2023/03/05 03:34:55;;;;;;;;;61.50;46.50;;;;;2.09;74.08;100633.53;5039687;28;45451;-74
2023/03/05 03:37:21;;;;;;;;;53.00;43.75;;;;;1.96;74.26;100598.38;5029651;28;45478;-74
2023/03/05 03:39:46;;;;;;;;;55.00;44.00;;;;;1.92;73.98;100598.97;5019314;28;45376;-74
2023/03/05 03:42:11;;;;;;;;;42.00;37.00;;;;;1.94;74.15;100602.53;5033123;28;45478;-74
2023/03/05 03:44:37;;;;;;;;;57.25;44.00;;;;;2.04;73.80;100627.22;5022473;28;45636;-74
2023/03/05 03:47:03;;;;;;;;;59.50;45.50;;;;;2.04;74.55;100622.06;5036802;28;45703;-74
2023/03/05 03:49:28;;;;;;;;;60.50;44.00;;;;;1.86;73.55;100593.41;5038584;28;45694;-74
2023/03/05 03:51:54;;;;;;;;;58.50;43.75;;;;;1.88;73.22;100609.84;5021677;28;45498;-74
2023/03/05 03:54:21;;;;;;;;;54.50;46.00;;;;;1.81;73.44;100605.09;5019614;28;45572;-74
2023/03/05 03:56:46;;;;;;;;;38.75;28.75;;;;;1.84;73.68;100623.31;5027006;28;47147;-74
2023/03/05 03:59:13;;;;;;;;;52.75;42.75;;;;;1.93;73.58;100632.56;5039239;28;45462;-74
2023/03/05 04:01:38;;;;;;;;;56.00;47.75;;;;;1.90;74.01;100629.75;5037584;28;45214;-74
2023/03/05 04:04:04;;;;;;;;;66.75;47.00;;;;;1.88;73.77;100622.72;5054087;28;45596;-74
2023/03/05 04:06:31;;;;;;;;;54.50;44.25;;;;;1.93;73.72;100632.56;5029341;28;46271;-74
2023/03/05 04:08:57;;;;;;;;;62.50;47.50;;;;;1.78;73.47;100609.25;5027631;28;45534;-74
2023/03/05 04:11:23;;;;;;;;;64.75;48.00;;;;;1.78;74.00;100610.94;5033707;28;45455;-75
2023/03/05 04:13:48;;;;;;;;;66.00;46.50;;;;;1.77;73.75;100612.63;5019204;28;45569;-75
2023/03/05 04:16:14;;;;;;;;;56.25;43.50;;;;;1.72;74.10;100603.69;5019010;28;46141;-75
2023/03/05 04:18:41;;;;;;;;;54.00;43.75;;;;;1.75;73.80;100616.78;5032393;28;45331;-74
2023/03/05 04:21:07;;;;;;;;;49.00;43.75;;;;;1.71;72.82;100609.66;5020031;28;45328;-75
2023/03/05 04:23:33;;;;;;;;;59.50;44.50;;;;;1.63;72.75;100597.91;5018998;28;45606;-74
2023/03/05 04:25:59;;;;;;;;;58.50;44.25;;;;;1.67;73.57;100605.09;5018834;28;46411;-74
2023/03/05 04:28:24;;;;;;;;;58.00;41.00;;;;;1.65;73.72;100588.63;5044238;28;45319;-73
2023/03/05 04:30:50;;;;;;;;;51.25;44.00;;;;;1.66;73.70;100592.97;5035848;28;45410;-74
2023/03/05 04:33:16;;;;;;;;;50.50;45.00;;;;;1.68;73.31;100595.66;5038606;28;45566;-74
2023/03/05 04:35:41;;;;;;;;;69.75;55.50;;;;;1.63;73.62;100590.19;5020360;28;47631;-74
2023/03/05 04:38:07;;;;;;;;;56.50;45.00;;;;;1.77;73.75;100607.47;5029982;28;45533;-74
2023/03/05 04:40:33;;;;;;;;;57.00;45.75;;;;;1.63;73.95;100582.47;5030190;28;45514;-74
2023/03/05 04:42:58;;;;;;;;;55.75;45.25;;;;;1.77;73.77;100609.13;5018899;28;45497;-73
2023/03/05 04:45:24;;;;;;;;;53.00;43.00;;;;;1.75;73.72;100603.00;5049779;28;46217;-74
2023/03/05 04:47:49;;;;;;;;;67.75;50.50;;;;;1.66;73.70;100587.84;5033690;28;45549;-74
2023/03/05 04:50:15;;;;;;;;;61.75;45.75;;;;;1.64;74.31;100578.22;5021902;28;45367;-73
2023/03/05 04:52:42;;;;;;;;;63.50;45.75;;;;;1.62;74.77;100579.81;5027142;28;45552;-73
2023/03/05 04:55:09;;;;;;;;;57.75;45.25;;;;;1.69;74.90;100592.28;5018528;28;46478;-74
2023/03/05 04:57:35;;;;;;;;;59.75;44.75;;;;;1.64;74.53;100575.66;5024248;28;45364;-73
2023/03/05 05:00:01;;;;;;;;;56.25;46.50;;;;;1.69;75.20;100590.63;5017481;28;45300;-73
2023/03/05 05:02:27;;;;;;;;;52.75;42.50;;;;;1.60;75.04;100582.28;5028214;28;45427;-74
2023/03/05 05:04:53;;;;;;;;;53.00;43.00;;;;;1.74;74.61;100608.94;5038227;28;46989;-73
2023/03/05 05:07:18;;;;;;;;;54.25;44.75;;;;;1.66;74.46;100592.97;5037961;28;45377;-74
2023/03/05 05:09:44;;;;;;;;;63.50;45.50;;;;;1.70;74.27;100604.38;5038859;28;45394;-74
2023/03/05 05:12:09;;;;;;;;;38.50;37.00;;;;;1.67;74.07;100604.16;5053864;28;45295;-73
2023/03/05 05:14:35;;;;;;;;;61.75;47.50;;;;;1.70;73.82;100615.56;5038223;28;45546;-74
2023/03/05 05:17:04;;;;;;;;;58.25;47.50;;;;;1.52;74.76;100588.59;5053022;28;45335;-74
2023/03/05 05:19:31;;;;;;;;;58.75;46.00;;;;;1.49;75.20;100578.09;5042854;28;45459;-74
2023/03/05 05:21:56;;;;;;;;;63.75;50.25;;;;;1.41;75.41;100569.84;5030490;28;45421;-74
2023/03/05 05:24:22;;;;;;;;;58.50;46.50;;;;;1.61;75.42;100599.50;5039912;28;45430;-74
2023/03/05 05:26:48;;;;;;;;;65.00;49.25;;;;;1.58;75.17;100607.03;5032546;28;45512;-74
2023/03/05 05:29:13;;;;;;;;;56.75;44.50;;;;;1.49;75.87;100591.88;5018614;28;45524;-74
2023/03/05 05:31:39;;;;;;;;;69.50;51.00;;;;;1.50;75.28;100591.06;5018365;28;45466;-75
2023/03/05 05:34:05;;;;;;;;;61.00;50.50;;;;;1.50;75.38;100585.03;5017231;28;46489;-75
2023/03/05 05:36:30;;;;;;;;;52.25;45.25;;;;;1.57;75.03;100595.84;5030358;28;45552;-75
2023/03/05 05:38:56;;;;;;;;;59.50;46.50;;;;;1.50;74.84;100585.03;5051388;28;45280;-75
2023/03/05 05:41:21;;;;;;;;;49.25;43.75;;;;;1.47;74.42;100584.81;5017865;28;45818;-75
2023/03/05 05:43:47;;;;;;;;;50.50;45.75;;;;;1.50;74.42;100590.19;5025688;28;45488;-74
2023/03/05 05:46:16;;;;;;;;;60.75;46.50;;;;;1.56;74.25;100603.47;5037855;28;45379;-74
2023/03/05 05:48:43;;;;;;;;;54.25;42.25;;;;;1.51;74.68;100587.72;5036329;28;45689;-74
2023/03/05 05:51:13;;;;;;;;;66.50;48.75;;;;;1.54;74.63;100593.06;5023985;28;45316;-74
2023/03/05 05:53:40;;;;;;;;;53.50;45.75;;;;;1.54;74.82;100592.19;5017401;28;46463;-74
2023/03/05 05:56:08;;;;;;;;;48.25;42.25;;;;;1.45;75.07;100573.53;5036449;28;45452;-73
2023/03/05 05:58:34;;;;;;;;;59.00;48.75;;;;;1.47;75.55;100582.25;5036712;28;45460;-75
2023/03/05 06:01:00;;;;;;;;;62.00;46.00;;;;;1.29;75.72;100549.34;5029541;28;45443;-75
2023/03/05 06:03:25;;;;;;;;;69.75;48.50;;;;;1.51;75.50;100586.81;5015950;28;46021;-75
2023/03/05 06:05:51;;;;;;;;;58.75;45.75;;;;;1.51;75.35;100591.97;5028717;28;45300;-75
2023/03/05 06:08:17;;;;;;;;;65.00;46.50;;;;;1.50;75.60;100585.03;5034027;28;45508;-74
2023/03/05 06:10:42;;;;;;;;;59.00;48.75;;;;;1.38;75.14;100567.97;5016961;28;45437;-75
2023/03/05 06:13:08;;;;;;;;;60.50;47.50;;;;;0.86;75.45;100477.00;5040516;28;45502;-73
2023/03/05 06:15:33;;;;;;;;;52.25;45.25;;;;;1.41;75.62;100572.44;5034585;28;45399;-74
2023/03/05 06:17:59;;;;;;;;;61.25;43.75;;;;;1.45;75.72;100582.13;5036134;28;45356;-74
2023/03/05 06:20:25;;;;;;;;;62.25;50.50;;;;;1.46;75.85;100580.47;5034663;28;45339;-74
2023/03/05 06:22:50;;;;;;;;;66.50;49.00;;;;;1.43;75.18;100572.53;5035515;28;46158;-73
2023/03/05 06:25:16;;;;;;;;;65.25;52.00;;;;;1.39;75.45;100572.34;5036508;28;45446;-73
2023/03/05 06:27:42;;;;;;;;;66.75;49.75;;;;;1.24;75.37;100550.72;5022939;28;45487;-74
2023/03/05 06:30:10;;;;;;;;;55.00;44.75;;;;;1.41;75.43;100580.16;5033493;28;45598;-75
2023/03/05 06:32:35;;;;;;;;;62.75;47.00;;;;;1.40;75.34;100573.22;5048509;28;46812;-73
2023/03/05 06:35:01;;;;;;;;;29.75;27.25;;;;;1.38;75.32;100562.81;5039899;28;45445;-74
2023/03/05 06:37:26;;;;;;;;;65.00;48.50;;;;;1.35;75.56;100562.63;5042366;28;45582;-74
2023/03/05 06:39:52;;;;;;;;;59.75;46.00;;;;;1.47;75.35;100582.25;5027993;28;45650;-74
2023/03/05 06:42:18;;;;;;;;;63.75;48.00;;;;;1.34;75.24;100558.25;5026758;28;46364;-72
2023/03/05 06:44:44;;;;;;;;;57.25;48.00;;;;;1.49;75.20;100585.81;5042917;28;45820;-74
2023/03/05 06:47:10;;;;;;;;;63.00;46.25;;;;;1.42;75.59;100578.50;5046704;28;45458;-72
2023/03/05 06:49:37;;;;;;;;;60.00;46.50;;;;;1.38;75.72;100570.56;5053796;28;45670;-74
2023/03/05 06:52:04;;;;;;;;;55.50;46.75;;;;;1.44;75.44;100574.34;5036486;28;47299;-73
2023/03/05 06:54:30;;;;;;;;;56.00;46.25;;;;;1.47;75.12;100575.41;5044588;28;45366;-74
2023/03/05 06:56:55;;;;;;;;;61.75;49.00;;;;;1.30;74.66;100529.66;5044491;28;45473;-74
2023/03/05 06:59:21;;;;;;;;;56.00;45.75;;;;;1.36;74.45;100541.25;5038616;28;45432;-73
2023/03/05 07:01:47;;;;;;;;;55.25;46.25;;;;;1.47;74.60;100538.47;5025373;28;46548;-74
2023/03/05 07:04:14;;;;;;;;;68.50;47.50;;;;;1.63;74.71;100569.59;5026519;28;45514;-74
2023/03/05 07:06:43;;;;;;;;;69.00;49.75;;;;;1.74;75.03;100568.63;5022646;28;45482;-73
2023/03/05 07:09:13;;;;;;;;;60.00;48.25;;;;;1.78;74.88;100578.34;5024074;28;45588;-74
2023/03/05 07:11:39;;;;;;;;;68.00;53.25;;;;;1.91;74.28;100586.84;5025434;28;45654;-73
2023/03/05 07:14:05;;;;;;;;;50.75;43.25;;;;;1.91;74.32;100563.66;5026946;28;45611;-73
2023/03/05 07:16:33;;;;;;;;;65.75;50.00;;;;;2.11;74.04;100581.31;5030947;28;45582;-74
2023/03/05 07:19:01;;;;;;;;;60.50;47.25;;;;;2.17;73.64;100573.09;5023620;28;45473;-74
2023/03/05 07:21:29;;;;;;;;;62.75;48.25;;;;;2.25;73.34;100565.81;5020754;28;45636;-74
2023/03/05 07:23:57;;;;;;;;;61.00;50.00;;;;;2.37;72.96;100571.78;5023861;28;45640;-75
2023/03/05 07:26:23;;;;;;;;;67.25;51.00;;;;;2.37;72.89;100552.03;5020852;28;45462;-74
2023/03/05 07:28:49;;;;;;;;;68.50;53.00;;;;;2.48;71.85;100560.44;5023248;28;45541;-75
2023/03/05 07:31:18;;;;;;;;;61.75;46.50;;;;;2.58;72.22;100567.94;5025308;28;46334;-75
2023/03/05 07:33:48;;;;;;;;;65.25;53.25;;;;;2.69;71.05;100568.63;5025496;28;45365;-75
2023/03/05 07:36:15;;;;;;;;;63.00;47.25;;;;;2.76;71.83;100554.41;5025712;28;45535;-75
2023/03/05 07:38:40;;;;;;;;;63.75;49.00;;;;;2.89;71.35;100556.94;5021120;28;45363;-74
2023/03/05 07:41:10;;;;;;;;;67.75;50.75;;;;;3.03;70.79;100559.47;5022606;28;46083;-74
2023/03/05 07:43:36;;;;;;;;;66.25;49.75;;;;;3.05;69.76;100538.13;5029076;28;45862;-74
2023/03/05 07:46:07;;;;;;;;;59.25;48.75;;;;;3.33;69.96;100561.28;5035564;28;45647;-74
2023/03/05 07:48:33;;;;;;;;;57.25;47.75;;;;;3.35;69.95;100531.28;5029608;28;45564;-74
2023/03/05 07:51:04;;;;;;;;;61.50;52.00;;;;;3.74;69.27;100560.25;5026398;28;45482;-75
2023/03/05 07:53:30;;;;;;;;;61.75;49.25;;;;;3.89;68.96;100557.63;5009811;28;46073;-74
2023/03/05 07:55:56;;;;;;;;;63.50;48.75;;;;;4.04;68.89;100543.78;5007406;28;45452;-74
2023/03/05 07:58:21;;;;;;;;;66.50;48.75;;;;;4.26;68.65;100541.59;5006958;28;45615;-76
2023/03/05 08:00:47;;;;;;;;;62.75;46.00;;;;;4.60;67.04;100540.84;5013083;28;45345;-74
2023/03/05 08:03:13;;;;;;;;;64.75;50.50;;;;;6.14;64.35;100533.97;4991581;28;45269;-75
2023/03/05 08:05:39;;;;;;;;;72.50;53.75;;;;;7.94;59.09;100540.97;5008574;28;45435;-75
2023/03/05 08:08:05;;;;;;;;;70.00;54.00;;;;;8.95;58.69;100438.06;5011931;28;45479;-75
2023/03/05 08:10:31;;;;;;;;;59.75;48.75;;;;;10.47;54.12;100515.13;4999278;28;46617;-75
2023/03/05 08:12:57;;;;;;;;;92.00;72.00;;;;;11.34;53.41;100500.16;5012666;28;45383;-75
2023/03/05 08:15:22;;;;;;;;;72.50;56.50;;;;;12.26;50.72;100496.28;5000929;28;45344;-74
2023/03/05 08:17:48;;;;;;;;;86.00;70.33;;;;;13.09;48.52;100500.56;5000285;28;45662;-73
2023/03/05 08:20:13;;;;;;;;;84.00;70.67;;;;;13.84;45.77;100501.03;4999065;28;46216;-75
2023/03/05 08:22:39;;;;;;;;;83.25;64.00;;;;;14.40;44.30;100492.22;5010444;28;45500;-75
2023/03/05 08:25:05;;;;;;;;;65.00;50.50;;;;;14.82;43.05;100483.16;5015629;28;45446;-74
2023/03/05 08:27:31;;;;;;;;;66.50;50.50;;;;;15.34;42.13;100495.97;5003297;28;46046;-75
2023/03/05 08:29:57;;;;;;;;;53.00;42.25;;;;;15.88;42.42;100481.56;5009673;28;45460;-73
2023/03/05 08:32:23;;;;;;;;;57.25;45.00;;;;;16.38;41.80;100475.72;4998973;28;45403;-75
2023/03/05 08:34:48;;;;;;;;;49.50;41.25;;;;;16.62;37.91;100479.34;5012226;28;45568;-74
2023/03/05 08:37:14;;;;;;;;;51.25;41.75;;;;;16.63;38.26;100476.72;5004027;28;45511;-73
2023/03/05 08:39:39;;;;;;;;;50.00;41.75;;;;;16.80;37.82;100467.97;5018357;28;46230;-76
2023/03/05 08:42:05;;;;;;;;;50.00;41.50;;;;;16.98;37.66;100468.06;5005119;28;45429;-75
2023/03/05 08:44:31;;;;;;;;;53.00;43.50;;;;;17.41;37.04;100467.28;4998483;28;45407;-76
2023/03/05 08:46:56;;;;;;;;;51.00;41.75;;;;;17.93;37.30;100440.84;4999097;28;45573;-74
2023/03/05 08:49:22;;;;;;;;;55.25;44.50;;;;;18.36;36.40;100443.34;5007183;28;46266;-74
2023/03/05 08:51:48;;;;;;;;;54.25;44.25;;;;;18.51;34.76;100453.00;5025642;28;45398;-76
2023/03/05 08:54:13;;;;;;;;;48.00;40.00;;;;;18.78;35.10;100444.06;5037713;28;45442;-75
2023/03/05 08:56:39;;;;;;;;;54.50;42.00;;;;;19.02;33.76;100443.06;5032711;28;45532;-74
2023/03/05 08:59:05;;;;;;;;;54.50;41.25;;;;;19.25;33.60;100434.94;5021622;28;46043;-75
2023/03/05 09:01:31;;;;;;;;;52.25;41.00;;;;;19.73;34.58;100453.13;5024439;28;45569;-75
2023/03/05 09:03:58;;;;;;;;;50.25;40.75;;;;;19.95;33.88;100427.28;5045876;28;45490;-76
2023/03/05 09:06:25;;;;;;;;;47.50;38.25;;;;;20.17;32.40;100435.03;5024609;28;45513;-75
2023/03/05 09:08:50;;;;;;;;;53.00;42.00;;;;;19.92;32.33;100419.41;5025089;28;45439;-75
2023/03/05 09:11:16;;;;;;;;;50.75;40.75;;;;;20.14;32.92;100437.72;5025304;28;45400;-73
2023/03/05 09:13:42;;;;;;;;;42.00;37.25;;;;;20.57;32.04;100408.91;5028687;28;45311;-76
2023/03/05 09:16:11;;;;;;;;;51.00;39.25;;;;;20.72;31.65;100410.50;5028084;28;46609;-76
2023/03/05 09:18:39;;;;;;;;;41.75;35.25;;;;;20.98;32.06;100414.53;5032420;28;46650;-74
2023/03/05 09:21:10;;;;;;;;;50.00;40.25;;;;;21.05;30.95;100414.44;5027064;28;45490;-73
2023/03/05 09:23:36;;;;;;;;;46.50;37.50;;;;;20.70;31.83;100416.72;5022111;28;45453;-75
2023/03/05 09:26:05;;;;;;;;;48.00;39.50;;;;;20.81;32.35;100398.84;5043040;28;45387;-75
2023/03/05 09:28:31;;;;;;;;;48.50;39.25;;;;;21.05;31.32;100392.31;5045386;28;46662;-74
2023/03/05 09:30:56;;;;;;;;;51.00;39.25;;;;;20.81;31.01;100386.47;5036652;28;45490;-74
2023/03/05 09:33:22;;;;;;;;;50.50;40.75;;;;;20.87;30.73;100377.56;5034118;28;45463;-76
2023/03/05 09:35:47;;;;;;;;;48.50;40.50;;;;;20.77;31.46;100390.06;5042651;28;46202;-72
2023/03/05 09:38:13;;;;;;;;;51.25;41.25;;;;;20.76;32.61;100379.47;5044889;28;46579;-72
2023/03/05 09:41:13;;;;;;;;;50.75;41.50;;;;;20.99;32.81;100387.06;5043605;28;46096;-72
2023/03/05 09:43:58;;;;;;;;;51.00;40.25;;;;;21.43;33.52;100381.09;5041303;28;45460;-72
2023/03/05 09:46:34;;;;;;;;;50.75;41.50;;;;;21.36;32.54;100398.00;5051970;28;45485;-72
2023/03/05 09:49:15;;;;;;;;;51.25;40.75;;;;;21.05;32.31;100387.88;5036216;28;46345;-72
2023/03/05 09:51:45;;;;;;;;;52.75;42.50;;;;;21.18;32.50;100390.34;5027461;28;45760;-72
2023/03/05 09:54:22;;;;;;;;;48.75;40.25;;;;;21.30;32.27;100387.47;5024866;28;45599;-70
2023/03/05 09:56:55;;;;;;;;;52.25;43.50;;;;;21.12;31.72;100371.84;5026966;28;45529;-72
2023/03/05 09:59:27;;;;;;;;;48.25;39.75;;;;;21.15;32.68;100391.28;5040631;28;45542;-72
2023/03/05 10:01:58;;;;;;;;;48.25;40.50;;;;;21.17;31.93;100376.19;5032830;28;45570;-69
2023/03/05 10:05:02;;;;;;;;;48.25;41.50;;;;;21.17;31.71;100378.84;5022442;28;45526;-72
2023/03/05 10:07:38;;;;;;;;;50.75;42.00;;;;;21.11;31.39;100378.94;5014862;28;45877;-71
2023/03/05 10:10:11;;;;;;;;;50.75;41.50;;;;;20.81;32.23;100378.50;5036514;28;45567;-72
2023/03/05 10:12:49;;;;;;;;;51.50;42.75;;;;;20.85;32.11;100374.91;5043938;28;45477;-72
2023/03/05 10:15:24;;;;;;;;;50.25;42.50;;;;;20.97;32.24;100375.59;5040234;28;45407;-71
2023/03/05 10:18:08;;;;;;;;;50.25;40.00;;;;;20.93;32.90;100350.00;5045139;28;45410;-71
2023/03/05 10:21:20;;;;;;;;;52.75;41.75;;;;;21.20;31.76;100354.00;5042370;28;45342;-71
2023/03/05 10:24:08;;;;;;;;;51.50;43.00;;;;;21.29;32.42;100345.88;5011705;28;45459;-72
2023/03/05 10:26:46;;;;;;;;;48.25;39.25;;;;;21.26;32.61;100354.75;5028574;28;45552;-73
2023/03/05 10:29:28;;;;;;;;;48.50;38.00;;;;;20.85;32.09;100352.81;5026480;28;45644;-73
2023/03/05 10:32:05;;;;;;;;;60.25;48.50;;;;;20.91;32.55;100349.16;5023396;28;45506;-73
2023/03/05 10:34:42;;;;;;;;;51.50;42.75;;;;;20.95;32.66;100322.53;5024883;28;45581;-73
2023/03/05 10:37:45;;;;;;;;;52.50;42.75;;;;;21.11;31.97;100333.78;5030062;28;45377;-71
2023/03/05 10:40:35;;;;;;;;;51.50;41.75;;;;;21.08;32.35;100327.66;5040935;28;45324;-72
2023/03/05 10:43:17;;;;;;;;;49.25;38.50;;;;;21.31;32.14;100325.47;5021474;28;45626;-72
2023/03/05 10:45:46;;;;;;;;;51.75;40.50;;;;;21.01;30.86;100325.09;5033743;28;45517;-72
2023/03/05 10:48:22;;;;;;;;;46.75;35.75;;;;;20.92;31.33;100311.09;5038105;28;45732;-71
2023/03/05 10:50:55;;;;;;;;;38.25;34.50;;;;;20.64;30.20;100296.47;5035393;28;45361;-71
2023/03/05 10:53:24;;;;;;;;;45.00;36.25;;;;;19.96;31.07;100312.41;5035316;28;45433;-73
2023/03/05 10:55:54;;;;;;;;;40.00;34.50;;;;;19.44;31.39;100307.69;5035723;28;45559;-73
2023/03/05 10:58:22;;;;;;;;;45.00;36.75;;;;;18.40;32.23;100317.28;5028939;28;45438;-73
2023/03/05 11:01:22;;;;;;;;;47.25;37.25;;;;;17.48;33.66;100289.44;5030871;28;45525;-72
2023/03/05 11:03:49;;;;;;;;;47.75;39.00;;;;;17.53;33.84;100306.16;5015364;28;45430;-72
2023/03/05 11:06:37;;;;;;;;;41.00;35.75;;;;;16.95;35.15;100311.47;5015881;28;45545;-72
2023/03/05 11:09:25;;;;;;;;;50.50;41.50;;;;;16.73;35.24;100298.25;5016295;28;45453;-72
2023/03/05 11:12:14;;;;;;;;;48.00;38.75;;;;;16.84;35.63;100300.94;5016109;28;45439;-73
2023/03/05 11:14:44;;;;;;;;;43.00;37.25;;;;;16.89;35.73;100281.59;5023919;28;46653;-71
2023/03/05 11:17:43;;;;;;;;;52.50;42.25;;;;;16.87;35.50;100291.28;5040286;28;45550;-72
2023/03/05 11:20:30;;;;;;;;;45.25;36.75;;;;;16.70;35.92;100292.97;5061562;28;45598;-72